Wetterdaten: Woche 05.06.17 - 11.06.17 (KW23)
Datum Zeit Temp. A. Feuchte A. Luftdruck Regen Wind Richtung Taupunkt Windchill Windben
05.06.2017 00:00 9,1 C 92 % 1015,3 hPa 0,0 l/m 0,2 km/h (0 Bft) O 7,9 C 9,1 C 1,1 km/h (0 Bft)
05.06.2017 01:00 8,7 C 94 % 1015,6 hPa 0,0 l/m 0,1 km/h (0 Bft) O 7,7 C 8,7 C 0,9 km/h (0 Bft)
05.06.2017 02:00 9,2 C 94 % 1015,4 hPa 0,0 l/m 0,3 km/h (0 Bft) O 8,2 C 9,2 C 1,5 km/h (1 Bft)
05.06.2017 03:00 9,4 C 94 % 1014,9 hPa 0,0 l/m 0,2 km/h (0 Bft) S 8,4 C 9,4 C 1,5 km/h (1 Bft)
05.06.2017 04:00 9,7 C 94 % 1014,7 hPa 0,0 l/m 0,3 km/h (0 Bft) S 8,8 C 9,7 C 1,5 km/h (1 Bft)
05.06.2017 05:00 10,1 C 94 % 1014,7 hPa 0,0 l/m 0,3 km/h (0 Bft) S 9,1 C 10,1 C 1,0 km/h (0 Bft)
05.06.2017 06:00 10,3 C 94 % 1014,5 hPa 0,0 l/m 0,1 km/h (0 Bft) S 9,3 C 10,3 C 1,0 km/h (0 Bft)
05.06.2017 07:00 10,6 C 92 % 1014,5 hPa 0,0 l/m 0,2 km/h (0 Bft) S 9,3 C 10,6 C 1,5 km/h (1 Bft)
05.06.2017 08:00 10,8 C 92 % 1014,7 hPa 0,5 l/m 0,9 km/h (0 Bft) O 9,6 C 10,8 C 3,1 km/h (1 Bft)
05.06.2017 09:00 10,8 C 93 % 1015,0 hPa 1,0 l/m 1,1 km/h (1 Bft) O 9,7 C 10,8 C 3,2 km/h (1 Bft)
05.06.2017 10:00 10,9 C 93 % 1014,9 hPa 0,3 l/m 0,6 km/h (0 Bft) O 9,8 C 10,9 C 2,3 km/h (1 Bft)
05.06.2017 11:00 11,9 C 91 % 1014,6 hPa 0,3 l/m 1,0 km/h (0 Bft) SW 10,5 C 11,9 C 3,2 km/h (1 Bft)
05.06.2017 12:00 12,6 C 88 % 1014,5 hPa 0,0 l/m 1,5 km/h (1 Bft) W-NW 10,7 C 12,6 C 3,4 km/h (1 Bft)
05.06.2017 13:00 14,0 C 82 % 1013,9 hPa 0,0 l/m 1,9 km/h (1 Bft) O-NO 11,0 C 14,0 C 4,8 km/h (1 Bft)
05.06.2017 14:00 15,8 C 77 % 1013,3 hPa 0,0 l/m 2,1 km/h (1 Bft) NO 11,8 C 15,8 C 5,5 km/h (2 Bft)
05.06.2017 15:00 16,8 C 73 % 1013,0 hPa 0,0 l/m 2,4 km/h (1 Bft) O 12,0 C 16,8 C 5,6 km/h (2 Bft)
05.06.2017 16:00 17,9 C 69 % 1012,6 hPa 0,0 l/m 2,4 km/h (1 Bft) O-NO 12,0 C 17,9 C 6,7 km/h (2 Bft)
05.06.2017 17:00 17,0 C 71 % 1012,2 hPa 0,0 l/m 3,3 km/h (1 Bft) NO 11,6 C 17,0 C 7,6 km/h (2 Bft)
05.06.2017 18:00 17,5 C 70 % 1011,5 hPa 0,0 l/m 3,4 km/h (1 Bft) NO 12,0 C 17,5 C 8,3 km/h (2 Bft)
05.06.2017 19:00 16,9 C 72 % 1011,1 hPa 0,0 l/m 3,8 km/h (1 Bft) NO 11,7 C 16,9 C 9,4 km/h (2 Bft)
05.06.2017 20:00 15,8 C 78 % 1010,8 hPa 0,0 l/m 2,3 km/h (1 Bft) O-NO 11,9 C 15,8 C 6,7 km/h (2 Bft)
05.06.2017 21:00 14,2 C 85 % 1010,5 hPa 0,0 l/m 0,4 km/h (0 Bft) N-NO 11,7 C 14,2 C 1,9 km/h (1 Bft)
05.06.2017 22:00 11,9 C 90 % 1010,5 hPa 0,0 l/m 0,0 km/h (0 Bft) N-NO 10,4 C 11,9 C 0,0 km/h (0 Bft)
05.06.2017 23:00 10,2 C 93 % 1009,9 hPa 0,0 l/m 0,0 km/h (0 Bft) N-NO 9,1 C 10,2 C 0,1 km/h (0 Bft)
06.06.2017 00:00 9,5 C 94 % 1009,3 hPa 0,0 l/m 0,0 km/h (0 Bft) N-NO 8,7 C 9,5 C 0,0 km/h (0 Bft)
06.06.2017 01:00 8,9 C 95 % 1008,7 hPa 0,0 l/m 0,0 km/h (0 Bft) N-NO 8,2 C 8,9 C 0,0 km/h (0 Bft)
06.06.2017 02:00 8,3 C 95 % 1007,9 hPa 0,0 l/m 0,0 km/h (0 Bft) N-NO 7,5 C 8,3 C 0,0 km/h (0 Bft)
06.06.2017 03:00 7,8 C 96 % 1006,9 hPa 0,0 l/m 0,0 km/h (0 Bft) N-NO 7,2 C 7,8 C 0,4 km/h (0 Bft)
06.06.2017 04:00 8,2 C 97 % 1006,1 hPa 0,0 l/m 0,2 km/h (0 Bft) N-NO 7,8 C 8,2 C 2,0 km/h (1 Bft)
06.06.2017 05:00 10,7 C 97 % 1005,6 hPa 0,0 l/m 3,3 km/h (1 Bft) O 10,3 C 10,7 C 9,5 km/h (2 Bft)
06.06.2017 06:00 11,5 C 94 % 1005,1 hPa 0,0 l/m 2,5 km/h (1 Bft) O 10,6 C 11,5 C 6,6 km/h (2 Bft)
06.06.2017 07:00 12,7 C 92 % 1005,0 hPa 0,0 l/m 0,9 km/h (0 Bft) O 11,5 C 12,7 C 3,1 km/h (1 Bft)
06.06.2017 08:00 14,6 C 86 % 1004,5 hPa 0,0 l/m 2,1 km/h (1 Bft) O-NO 12,2 C 14,6 C 5,2 km/h (1 Bft)
06.06.2017 09:00 15,4 C 77 % 1004,6 hPa 0,0 l/m 6,3 km/h (2 Bft) O-NO 11,3 C 14,9 C 15,3 km/h (3 Bft)
06.06.2017 10:00 15,6 C 71 % 1004,5 hPa 0,0 l/m 8,9 km/h (2 Bft) O-NO 10,3 C 14,4 C 20,0 km/h (4 Bft)
06.06.2017 11:00 15,2 C 70 % 1004,8 hPa 0,0 l/m 9,6 km/h (2 Bft) O-NO 9,8 C 13,6 C 19,6 km/h (3 Bft)
06.06.2017 12:00 15,2 C 74 % 1005,1 hPa 0,0 l/m 10,6 km/h (2 Bft) O-NO 10,6 C 13,1 C 21,9 km/h (4 Bft)
06.06.2017 13:00 12,8 C 88 % 1005,8 hPa 1,0 l/m 7,5 km/h (2 Bft) O-NO 11,0 C 11,9 C 14,1 km/h (3 Bft)
06.06.2017 14:00 14,5 C 82 % 1005,2 hPa 0,0 l/m 7,9 km/h (2 Bft) NO 11,5 C 13,6 C 14,2 km/h (3 Bft)
06.06.2017 15:00 13,9 C 81 % 1005,9 hPa 2,0 l/m 6,4 km/h (2 Bft) O-NO 10,7 C 13,2 C 12,4 km/h (2 Bft)
06.06.2017 16:00 14,2 C 80 % 1006,7 hPa 0,0 l/m 5,9 km/h (2 Bft) O-NO 10,7 C 13,8 C 10,4 km/h (2 Bft)
06.06.2017 17:00 13,7 C 77 % 1007,6 hPa 0,0 l/m 4,6 km/h (1 Bft) O-NO 9,6 C 13,6 C 9,1 km/h (2 Bft)
06.06.2017 18:00 14,3 C 61 % 1008,3 hPa 0,0 l/m 5,4 km/h (2 Bft) O-NO 6,9 C 14,1 C 11,2 km/h (2 Bft)
06.06.2017 19:00 11,8 C 71 % 1009,6 hPa 2,0 l/m 6,2 km/h (2 Bft) O-NO 6,5 C 11,2 C 16,0 km/h (3 Bft)
06.06.2017 20:00 8,8 C 90 % 1010,6 hPa 0,0 l/m 4,0 km/h (1 Bft) O 7,2 C 8,8 C 10,1 km/h (2 Bft)
06.06.2017 21:00 8,3 C 90 % 1011,2 hPa 0,5 l/m 6,0 km/h (2 Bft) O-NO 6,8 C 7,8 C 14,5 km/h (3 Bft)
06.06.2017 22:00 7,5 C 92 % 1012,5 hPa 0,8 l/m 5,2 km/h (1 Bft) O-NO 6,3 C 7,0 C 13,2 km/h (3 Bft)
06.06.2017 23:00 7,0 C 93 % 1012,9 hPa 2,3 l/m 4,2 km/h (1 Bft) O 6,0 C 7,0 C 9,9 km/h (2 Bft)
07.06.2017 00:00 6,9 C 94 % 1013,0 hPa 0,3 l/m 3,1 km/h (1 Bft) N-NO 6,0 C 6,9 C 7,1 km/h (2 Bft)
07.06.2017 01:00 7,0 C 95 % 1013,3 hPa 0,3 l/m 2,6 km/h (1 Bft) O-NO 6,1 C 7,0 C 7,1 km/h (2 Bft)
07.06.2017 02:00 7,3 C 94 % 1013,5 hPa 0,0 l/m 4,5 km/h (1 Bft) O-NO 6,4 C 7,3 C 11,4 km/h (2 Bft)
07.06.2017 03:00 7,6 C 93 % 1013,8 hPa 0,0 l/m 3,9 km/h (1 Bft) NO 6,5 C 7,6 C 9,3 km/h (2 Bft)
07.06.2017 04:00 7,6 C 93 % 1014,0 hPa 0,0 l/m 3,9 km/h (1 Bft) O 6,5 C 7,6 C 10,1 km/h (2 Bft)
07.06.2017 05:00 7,8 C 93 % 1014,2 hPa 0,0 l/m 4,4 km/h (1 Bft) O-NO 6,7 C 7,7 C 11,1 km/h (2 Bft)
07.06.2017 06:00 7,9 C 93 % 1014,7 hPa 0,0 l/m 3,9 km/h (1 Bft) O 6,8 C 7,9 C 10,7 km/h (2 Bft)
07.06.2017 07:00 7,6 C 93 % 1015,4 hPa 6,4 l/m 4,9 km/h (1 Bft) O-NO 6,6 C 7,5 C 14,1 km/h (3 Bft)
07.06.2017 08:00 7,6 C 93 % 1016,3 hPa 0,3 l/m 5,1 km/h (1 Bft) O-NO 6,6 C 7,5 C 11,7 km/h (2 Bft)
07.06.2017 09:00 8,7 C 91 % 1016,9 hPa 0,0 l/m 6,1 km/h (2 Bft) NO 7,3 C 8,5 C 14,9 km/h (3 Bft)
07.06.2017 10:00 9,7 C 86 % 1017,1 hPa 0,0 l/m 6,4 km/h (2 Bft) NO 7,4 C 9,4 C 15,0 km/h (3 Bft)
07.06.2017 11:00 10,9 C 81 % 1017,5 hPa 0,0 l/m 7,4 km/h (2 Bft) O-NO 7,8 C 10,0 C 16,0 km/h (3 Bft)
07.06.2017 12:00 11,7 C 76 % 1017,7 hPa 0,0 l/m 6,8 km/h (2 Bft) O 7,6 C 10,9 C 15,9 km/h (3 Bft)
07.06.2017 13:00 11,8 C 75 % 1018,3 hPa 1,0 l/m 7,9 km/h (2 Bft) O-NO 7,4 C 10,6 C 20,5 km/h (4 Bft)
07.06.2017 14:00 11,1 C 84 % 1018,8 hPa 0,0 l/m 6,3 km/h (2 Bft) O 8,5 C 10,8 C 15,8 km/h (3 Bft)
07.06.2017 15:00 12,8 C 75 % 1019,0 hPa 0,0 l/m 6,0 km/h (2 Bft) N-NO 8,4 C 12,7 C 15,3 km/h (3 Bft)
07.06.2017 16:00 13,9 C 67 % 1019,4 hPa 0,0 l/m 7,5 km/h (2 Bft) O-NO 7,8 C 13,2 C 17,3 km/h (3 Bft)
07.06.2017 17:00 14,4 C 63 % 1019,6 hPa 0,0 l/m 6,7 km/h (2 Bft) O-NO 7,4 C 13,8 C 17,4 km/h (3 Bft)
07.06.2017 18:00 14,6 C 60 % 1019,8 hPa 0,0 l/m 6,7 km/h (2 Bft) O-NO 6,9 C 14,2 C 15,4 km/h (3 Bft)
07.06.2017 19:00 13,8 C 61 % 1020,1 hPa 0,0 l/m 4,8 km/h (1 Bft) O-NO 6,3 C 13,7 C 12,0 km/h (2 Bft)
07.06.2017 20:00 12,5 C 65 % 1020,7 hPa 0,0 l/m 1,3 km/h (1 Bft) NO 6,2 C 12,5 C 4,3 km/h (1 Bft)
07.06.2017 21:00 9,9 C 79 % 1021,1 hPa 0,0 l/m 0,6 km/h (0 Bft) NO 6,4 C 9,9 C 2,3 km/h (1 Bft)
07.06.2017 22:00 7,9 C 86 % 1021,5 hPa 0,0 l/m 0,1 km/h (0 Bft) NO 5,7 C 7,9 C 0,7 km/h (0 Bft)
07.06.2017 23:00 6,2 C 91 % 1021,7 hPa 0,0 l/m 0,0 km/h (0 Bft) NO 4,8 C 6,2 C 0,0 km/h (0 Bft)
08.06.2017 00:00 5,5 C 92 % 1022,0 hPa 0,0 l/m 0,0 km/h (0 Bft) NO 4,2 C 5,5 C 0,4 km/h (0 Bft)
08.06.2017 01:00 4,4 C 93 % 1021,8 hPa 0,0 l/m 0,1 km/h (0 Bft) NO 3,4 C 4,4 C 0,9 km/h (0 Bft)
08.06.2017 02:00 3,7 C 94 % 1021,8 hPa 0,0 l/m 0,0 km/h (0 Bft) NO 2,9 C 3,7 C 0,9 km/h (0 Bft)
08.06.2017 03:00 3,1 C 95 % 1021,8 hPa 0,0 l/m 0,1 km/h (0 Bft) NO 2,3 C 3,1 C 0,8 km/h (0 Bft)
08.06.2017 04:00 2,7 C 95 % 1021,9 hPa 0,0 l/m 0,1 km/h (0 Bft) NO 2,0 C 2,7 C 0,8 km/h (0 Bft)
08.06.2017 05:00 2,4 C 95 % 1021,8 hPa 0,0 l/m 0,0 km/h (0 Bft) NO 1,7 C 2,4 C 0,3 km/h (0 Bft)
08.06.2017 06:00 2,9 C 96 % 1021,8 hPa 0,0 l/m 0,0 km/h (0 Bft) NO 2,4 C 2,9 C 0,3 km/h (0 Bft)
08.06.2017 07:00 5,8 C 96 % 1021,7 hPa 0,0 l/m 0,1 km/h (0 Bft) NO 5,2 C 5,8 C 0,8 km/h (0 Bft)
08.06.2017 08:00 10,6 C 84 % 1021,3 hPa 0,0 l/m 0,6 km/h (0 Bft) NO 7,9 C 10,6 C 2,5 km/h (1 Bft)
08.06.2017 09:00 14,0 C 64 % 1020,9 hPa 0,0 l/m 3,6 km/h (1 Bft) O 7,1 C 14,0 C 10,2 km/h (2 Bft)
08.06.2017 10:00 15,4 C 53 % 1020,7 hPa 0,0 l/m 4,1 km/h (1 Bft) NO 5,9 C 15,4 C 10,3 km/h (2 Bft)
08.06.2017 11:00 17,2 C 51 % 1020,1 hPa 0,0 l/m 4,1 km/h (1 Bft) NW 6,8 C 17,1 C 10,5 km/h (2 Bft)
08.06.2017 12:00 18,1 C 48 % 1019,8 hPa 0,0 l/m 3,8 km/h (1 Bft) NO 6,8 C 18,1 C 9,3 km/h (2 Bft)
08.06.2017 13:00 19,7 C 47 % 1019,2 hPa 0,0 l/m 3,6 km/h (1 Bft) N-NW 8,1 C 19,7 C 9,0 km/h (2 Bft)
08.06.2017 14:00 20,9 C 45 % 1018,7 hPa 0,0 l/m 3,2 km/h (1 Bft) W-NW 8,5 C 20,9 C 8,2 km/h (2 Bft)
08.06.2017 15:00 22,2 C 42 % 1018,2 hPa 0,0 l/m 3,4 km/h (1 Bft) NO 8,8 C 22,2 C 8,6 km/h (2 Bft)
08.06.2017 16:00 23,1 C 41 % 1017,3 hPa 0,0 l/m 3,3 km/h (1 Bft) W-NW 9,3 C 23,1 C 7,7 km/h (2 Bft)
08.06.2017 17:00 23,3 C 40 % 1016,7 hPa 0,0 l/m 3,5 km/h (1 Bft) NO 9,0 C 23,3 C 8,7 km/h (2 Bft)
08.06.2017 18:00 23,6 C 40 % 1016,2 hPa 0,0 l/m 2,2 km/h (1 Bft) W-NW 9,2 C 23,6 C 7,1 km/h (2 Bft)
08.06.2017 19:00 22,5 C 42 % 1016,0 hPa 0,0 l/m 1,6 km/h (1 Bft) NW 9,1 C 22,5 C 4,8 km/h (1 Bft)
08.06.2017 20:00 20,6 C 52 % 1015,8 hPa 0,0 l/m 0,6 km/h (0 Bft) O-NO 10,2 C 20,6 C 2,8 km/h (1 Bft)
08.06.2017 21:00 16,6 C 71 % 1015,8 hPa 0,0 l/m 0,1 km/h (0 Bft) O-NO 11,1 C 16,6 C 1,2 km/h (1 Bft)
08.06.2017 22:00 13,7 C 78 % 1016,1 hPa 0,0 l/m 0,0 km/h (0 Bft) O-NO 10,0 C 13,7 C 0,0 km/h (0 Bft)
08.06.2017 23:00 11,4 C 83 % 1015,7 hPa 0,0 l/m 0,0 km/h (0 Bft) O-NO 8,6 C 11,4 C 0,4 km/h (0 Bft)
09.06.2017 00:00 10,5 C 85 % 1015,4 hPa 0,0 l/m 0,0 km/h (0 Bft) O-NO 8,1 C 10,5 C 0,0 km/h (0 Bft)
09.06.2017 01:00 9,2 C 88 % 1014,6 hPa 0,0 l/m 0,0 km/h (0 Bft) O-NO 7,3 C 9,2 C 0,0 km/h (0 Bft)
09.06.2017 02:00 8,3 C 90 % 1014,1 hPa 0,0 l/m 0,0 km/h (0 Bft) O-NO 6,8 C 8,3 C 0,0 km/h (0 Bft)
09.06.2017 03:00 7,7 C 92 % 1013,6 hPa 0,0 l/m 0,0 km/h (0 Bft) O-NO 6,4 C 7,7 C 0,0 km/h (0 Bft)
09.06.2017 04:00 7,1 C 93 % 1012,9 hPa 0,0 l/m 0,0 km/h (0 Bft) O-NO 6,0 C 7,1 C 0,0 km/h (0 Bft)
09.06.2017 05:00 6,7 C 93 % 1012,7 hPa 0,0 l/m 0,0 km/h (0 Bft) O-NO 5,7 C 6,7 C 0,0 km/h (0 Bft)
09.06.2017 06:00 6,8 C 94 % 1012,6 hPa 0,0 l/m 0,0 km/h (0 Bft) O-NO 5,9 C 6,8 C 0,0 km/h (0 Bft)
09.06.2017 07:00 9,9 C 91 % 1012,5 hPa 0,0 l/m 0,0 km/h (0 Bft) O-SO 8,5 C 9,9 C 0,0 km/h (0 Bft)
09.06.2017 08:00 16,4 C 73 % 1012,5 hPa 0,0 l/m 0,1 km/h (0 Bft) O 11,4 C 16,4 C 0,5 km/h (0 Bft)
09.06.2017 09:00 20,3 C 53 % 1012,9 hPa 0,0 l/m 8,7 km/h (2 Bft) NO 10,4 C 19,4 C 20,2 km/h (4 Bft)
09.06.2017 10:00 20,6 C 56 % 1013,0 hPa 0,0 l/m 9,0 km/h (2 Bft) O-NO 11,5 C 19,7 C 23,7 km/h (4 Bft)
09.06.2017 11:00 19,7 C 63 % 1013,8 hPa 0,0 l/m 6,8 km/h (2 Bft) O-NO 12,5 C 19,3 C 15,8 km/h (3 Bft)
09.06.2017 12:00 19,6 C 65 % 1014,1 hPa 0,0 l/m 8,2 km/h (2 Bft) O 12,8 C 18,8 C 17,9 km/h (3 Bft)
09.06.2017 13:00 19,2 C 69 % 1014,5 hPa 0,0 l/m 6,7 km/h (2 Bft) O-NO 13,3 C 18,8 C 16,6 km/h (3 Bft)
09.06.2017 14:00 19,0 C 69 % 1014,7 hPa 0,0 l/m 4,5 km/h (1 Bft) O-NO 13,2 C 19,0 C 12,3 km/h (2 Bft)
09.06.2017 15:00 18,8 C 72 % 1015,0 hPa 0,0 l/m 5,3 km/h (1 Bft) NO 13,7 C 18,7 C 12,7 km/h (3 Bft)
09.06.2017 16:00 20,3 C 58 % 1015,1 hPa 0,0 l/m 6,0 km/h (2 Bft) NO 11,7 C 20,2 C 14,6 km/h (3 Bft)
09.06.2017 17:00 20,4 C 58 % 1014,9 hPa 0,0 l/m 3,2 km/h (1 Bft) O-NO 11,7 C 20,4 C 8,9 km/h (2 Bft)
09.06.2017 18:00 20,0 C 56 % 1014,8 hPa 0,0 l/m 3,7 km/h (1 Bft) NO 10,9 C 20,0 C 9,4 km/h (2 Bft)
09.06.2017 19:00 16,9 C 74 % 1015,6 hPa 8,6 l/m 1,8 km/h (1 Bft) O 12,1 C 16,9 C 5,6 km/h (2 Bft)
09.06.2017 20:00 14,0 C 93 % 1015,7 hPa 0,3 l/m 1,6 km/h (1 Bft) O-NO 12,8 C 14,0 C 4,3 km/h (1 Bft)
09.06.2017 21:00 13,7 C 94 % 1016,5 hPa 0,8 l/m 0,8 km/h (0 Bft) O 12,7 C 13,7 C 3,5 km/h (1 Bft)
09.06.2017 22:00 13,3 C 95 % 1017,1 hPa 0,0 l/m 0,5 km/h (0 Bft) O-NO 12,4 C 13,3 C 2,1 km/h (1 Bft)
09.06.2017 23:00 12,4 C 95 % 1017,7 hPa 0,0 l/m 0,0 km/h (0 Bft) O-SO 11,6 C 12,4 C 0,3 km/h (0 Bft)
10.06.2017 00:00 11,9 C 95 % 1018,1 hPa 0,0 l/m 0,0 km/h (0 Bft) O-SO 11,1 C 11,9 C 0,3 km/h (0 Bft)
10.06.2017 01:00 11,1 C 96 % 1018,4 hPa 0,0 l/m 0,0 km/h (0 Bft) O-SO 10,4 C 11,1 C 0,1 km/h (0 Bft)
10.06.2017 02:00 10,4 C 96 % 1018,6 hPa 0,0 l/m 0,2 km/h (0 Bft) O-SO 9,8 C 10,4 C 1,1 km/h (0 Bft)
10.06.2017 03:00 10,7 C 97 % 1018,8 hPa 0,0 l/m 0,2 km/h (0 Bft) O-SO 10,3 C 10,7 C 1,6 km/h (1 Bft)
10.06.2017 04:00 11,3 C 97 % 1019,0 hPa 0,0 l/m 1,1 km/h (1 Bft) O-NO 10,9 C 11,3 C 3,6 km/h (1 Bft)
10.06.2017 05:00 11,1 C 97 % 1019,4 hPa 0,3 l/m 0,4 km/h (0 Bft) O-NO 10,6 C 11,1 C 2,5 km/h (1 Bft)
10.06.2017 06:00 11,0 C 98 % 1019,8 hPa 0,0 l/m 0,5 km/h (0 Bft) O-SO 10,6 C 11,0 C 2,0 km/h (1 Bft)
10.06.2017 07:00 11,6 C 98 % 1019,9 hPa 0,0 l/m 0,5 km/h (0 Bft) NO 11,3 C 11,6 C 2,5 km/h (1 Bft)
10.06.2017 08:00 12,8 C 98 % 1020,3 hPa 0,0 l/m 0,9 km/h (0 Bft) NO 12,4 C 12,8 C 2,8 km/h (1 Bft)
10.06.2017 09:00 15,6 C 79 % 1020,5 hPa 0,0 l/m 1,3 km/h (1 Bft) O-NO 11,9 C 15,6 C 3,7 km/h (1 Bft)
10.06.2017 10:00 17,9 C 61 % 1020,9 hPa 0,0 l/m 2,6 km/h (1 Bft) O-NO 10,3 C 17,9 C 7,1 km/h (2 Bft)
10.06.2017 11:00 19,1 C 60 % 1021,2 hPa 0,0 l/m 3,1 km/h (1 Bft) N-NO 11,1 C 19,1 C 6,7 km/h (2 Bft)
10.06.2017 12:00 19,7 C 58 % 1021,0 hPa 0,0 l/m 3,0 km/h (1 Bft) NO 11,2 C 19,7 C 6,5 km/h (2 Bft)
10.06.2017 13:00 20,9 C 53 % 1020,7 hPa 0,0 l/m 3,5 km/h (1 Bft) NO 10,9 C 20,9 C 8,7 km/h (2 Bft)
10.06.2017 14:00 22,0 C 48 % 1020,1 hPa 0,0 l/m 3,6 km/h (1 Bft) O-NO 10,4 C 22,0 C 9,1 km/h (2 Bft)
10.06.2017 15:00 22,9 C 44 % 1019,7 hPa 0,0 l/m 3,1 km/h (1 Bft) NO 10,1 C 22,9 C 8,3 km/h (2 Bft)
10.06.2017 16:00 24,1 C 42 % 1019,2 hPa 0,0 l/m 2,2 km/h (1 Bft) NW 10,4 C 24,1 C 6,5 km/h (2 Bft)
10.06.2017 17:00 24,2 C 41 % 1018,8 hPa 0,0 l/m 2,8 km/h (1 Bft) NW 10,1 C 24,2 C 6,4 km/h (2 Bft)
10.06.2017 18:00 23,3 C 45 % 1018,8 hPa 0,0 l/m 2,0 km/h (1 Bft) N-NW 10,8 C 23,3 C 6,3 km/h (2 Bft)
10.06.2017 19:00 22,5 C 47 % 1019,0 hPa 0,0 l/m 1,1 km/h (1 Bft) NW 10,8 C 22,5 C 4,1 km/h (1 Bft)
10.06.2017 20:00 20,6 C 55 % 1019,1 hPa 0,0 l/m 0,7 km/h (0 Bft) SW 11,2 C 20,6 C 2,4 km/h (1 Bft)
10.06.2017 21:00 17,8 C 68 % 1019,5 hPa 0,0 l/m 0,0 km/h (0 Bft) SW 11,7 C 17,8 C 0,1 km/h (0 Bft)
10.06.2017 22:00 14,8 C 80 % 1020,1 hPa 0,0 l/m 0,0 km/h (0 Bft) SW 11,4 C 14,8 C 0,0 km/h (0 Bft)
10.06.2017 23:00 12,8 C 86 % 1020,6 hPa 0,0 l/m 0,0 km/h (0 Bft) SW 10,6 C 12,8 C 0,0 km/h (0 Bft)
11.06.2017 00:00 12,0 C 89 % 1020,7 hPa 0,0 l/m 0,0 km/h (0 Bft) SW 10,2 C 12,0 C 0,0 km/h (0 Bft)
11.06.2017 01:00 11,1 C 91 % 1020,5 hPa 0,0 l/m 0,0 km/h (0 Bft) SW 9,8 C 11,1 C 0,0 km/h (0 Bft)
11.06.2017 02:00 10,6 C 92 % 1020,2 hPa 0,0 l/m 0,0 km/h (0 Bft) SW 9,4 C 10,6 C 0,0 km/h (0 Bft)
11.06.2017 03:00 10,0 C 93 % 1019,9 hPa 0,0 l/m 0,0 km/h (0 Bft) SW 8,9 C 10,0 C 0,0 km/h (0 Bft)
11.06.2017 04:00 9,3 C 94 % 1019,7 hPa 0,0 l/m 0,0 km/h (0 Bft) SW 8,4 C 9,3 C 0,0 km/h (0 Bft)
11.06.2017 05:00 8,9 C 95 % 1019,4 hPa 0,0 l/m 0,0 km/h (0 Bft) SW 8,0 C 8,9 C 0,0 km/h (0 Bft)
11.06.2017 06:00 8,8 C 95 % 1019,5 hPa 0,0 l/m 0,0 km/h (0 Bft) SW 8,1 C 8,8 C 0,0 km/h (0 Bft)
11.06.2017 07:00 11,5 C 93 % 1019,2 hPa 0,0 l/m 0,0 km/h (0 Bft) SW 10,5 C 11,5 C 0,0 km/h (0 Bft)
11.06.2017 08:00 16,9 C 78 % 1018,9 hPa 0,0 l/m 0,0 km/h (0 Bft) SW 12,9 C 16,9 C 0,0 km/h (0 Bft)
11.06.2017 09:00 21,2 C 61 % 1018,6 hPa 0,0 l/m 0,0 km/h (0 Bft) NW 13,3 C 21,2 C 0,0 km/h (0 Bft)
11.06.2017 10:00 23,5 C 53 % 1018,1 hPa 0,0 l/m 1,2 km/h (1 Bft) W-NW 13,4 C 23,5 C 6,7 km/h (2 Bft)
11.06.2017 11:00 25,1 C 48 % 1017,4 hPa 0,0 l/m 2,9 km/h (1 Bft) W-NW 13,4 C 25,1 C 7,6 km/h (2 Bft)
11.06.2017 12:00 25,9 C 45 % 1017,0 hPa 0,0 l/m 3,6 km/h (1 Bft) W 13,1 C 25,9 C 8,4 km/h (2 Bft)
11.06.2017 13:00 27,2 C 42 % 1016,3 hPa 0,0 l/m 2,9 km/h (1 Bft) W-NW 12,9 C 27,2 C 8,3 km/h (2 Bft)
11.06.2017 14:00 28,5 C 39 % 1015,6 hPa 0,0 l/m 3,2 km/h (1 Bft) W-NW 13,2 C 28,5 C 8,8 km/h (2 Bft)
11.06.2017 15:00 29,5 C 36 % 1014,9 hPa 0,0 l/m 2,8 km/h (1 Bft) NW 12,8 C 29,5 C 7,5 km/h (2 Bft)
11.06.2017 16:00 30,4 C 35 % 1014,2 hPa 0,0 l/m 2,5 km/h (1 Bft) N-NW 13,3 C 30,4 C 6,8 km/h (2 Bft)
11.06.2017 17:00 30,4 C 36 % 1013,7 hPa 0,0 l/m 2,6 km/h (1 Bft) O-NO 13,5 C 30,4 C 6,8 km/h (2 Bft)
11.06.2017 18:00 28,0 C 49 % 1013,4 hPa 0,0 l/m 4,8 km/h (1 Bft) O 16,1 C 28,0 C 12,2 km/h (2 Bft)
11.06.2017 19:00 26,5 C 52 % 1013,2 hPa 0,0 l/m 3,1 km/h (1 Bft) O-NO 16,0 C 26,5 C 8,4 km/h (2 Bft)
11.06.2017 20:00 25,2 C 54 % 1013,2 hPa 0,0 l/m 1,5 km/h (1 Bft) O 15,0 C 25,2 C 4,7 km/h (1 Bft)
11.06.2017 21:00 22,1 C 68 % 1013,3 hPa 0,0 l/m 0,0 km/h (0 Bft) O 15,8 C 22,1 C 0,4 km/h (0 Bft)
11.06.2017 22:00 19,6 C 79 % 1013,6 hPa 0,0 l/m 0,0 km/h (0 Bft) O 15,8 C 19,6 C 0,7 km/h (0 Bft)
11.06.2017 23:00 18,8 C 79 % 1013,8 hPa 0,0 l/m 0,4 km/h (0 Bft) O 15,1 C 18,8 C 1,4 km/h (1 Bft)
Min-Datum _ 08.06.17 11.06.17 06.06.17 - 11.06.17 - 08.06.17 08.06.17 11.06.17
_ Min-Zeit 05:30 16:00 10:25 - 23:00 - 05:30 05:30 23:00
Minimum _ 2,3 C 33 % 1004,2 hPa - 0,0 km/h (0 Bft) - 1,6 C 2,3 C 0,0 km/h (0 Bft)
Max-Datum _ 11.06.17 10.06.17 08.06.17 09.06.17 06.06.17 - 11.06.17 11.06.17 09.06.17
_ Max-Zeit 17:00 08:00 00:20 19:25 11:59 - 18:15 17:00 10:25
Maximum _ 30,8 C 98 % 1022,1 hPa 8,6 l/m 17,7 km/h
O-NO (3 Bft)
- 16,6 C 30,8 C 32,2 km/h
NO (5 Bft)
Durchschnitt _ 14,1 C 77 % 1015,5 hPa #28,7 l/m 2,5 km/h (1 Bft) O-NO 9,5 C 14,0 C 6,3 km/h (2 Bft)